Time;durP1;ratioP1;P1;durP2;ratioP2;P2;SDS_P1;SDS_P2;PMS_P1;PMS_P2;Temp;Humidity;BMP_temperature;BMP_pressure;BME280_temperature;BME280_humidity;BME280_pressure;Samples;Min_cycle;Max_cycle;Signal;HPM_P1;HPM_P2
2022/11/06 00:00:00;;;;;;;0.9;0.9;;;;;;;9.4;100.0;101240;;;;
2022/11/06 00:01:04;;;;;;;0.9;0.9;;;;;;;9.4;100.0;101240;;;;
2022/11/06 00:02:00;;;;;;;0.9;0.9;;;;;;;9.4;100.0;101240;;;;
2022/11/06 00:03:00;;;;;;;0.9;0.9;;;;;;;9.4;100.0;101230;;;;
2022/11/06 00:04:00;;;;;;;0.9;0.9;;;;;;;9.4;100.0;101230;;;;
2022/11/06 00:06:46;;;;;;;0.9;0.9;;;;;;;9.5;100.0;101230;;;;
2022/11/06 00:07:00;;;;;;;0.9;0.9;;;;;;;9.4;100.0;101230;;;;
2022/11/06 00:08:00;;;;;;;0.9;0.9;;;;;;;9.4;100.0;101230;;;;
2022/11/06 00:09:01;;;;;;;1.3;1.2;;;;;;;9.4;100.0;101240;;;;
2022/11/06 00:10:00;;;;;;;1.3;1.2;;;;;;;9.4;100.0;101240;;;;
2022/11/06 00:11:00;;;;;;;1.3;1.2;;;;;;;9.4;100.0;101230;;;;
2022/11/06 00:12:00;;;;;;;1.3;1.2;;;;;;;9.4;100.0;101230;;;;
2022/11/06 00:13:00;;;;;;;1.3;1.2;;;;;;;9.3;100.0;101240;;;;
2022/11/06 00:14:00;;;;;;;1.3;1.2;;;;;;;9.3;100.0;101240;;;;
2022/11/06 00:15:00;;;;;;;1.3;1.2;;;;;;;9.4;100.0;101250;;;;
2022/11/06 00:16:02;;;;;;;1.3;1.2;;;;;;;9.4;100.0;101250;;;;
2022/11/06 00:17:00;;;;;;;1.3;1.2;;;;;;;9.4;100.0;101240;;;;
2022/11/06 00:18:00;;;;;;;1.3;1.2;;;;;;;9.4;100.0;101240;;;;
2022/11/06 00:19:00;;;;;;;1.3;1.2;;;;;;;9.4;100.0;101240;;;;
2022/11/06 00:20:00;;;;;;;1.3;1.2;;;;;;;9.4;100.0;101240;;;;
2022/11/06 00:21:08;;;;;;;1.3;1.2;;;;;;;9.4;100.0;101250;;;;
2022/11/06 00:22:00;;;;;;;1.3;1.2;;;;;;;9.4;100.0;101250;;;;
2022/11/06 00:23:00;;;;;;;1.3;1.2;;;;;;;9.4;100.0;101240;;;;
2022/11/06 00:24:01;;;;;;;1.3;1.2;;;;;;;9.4;100.0;101240;;;;
2022/11/06 00:25:00;;;;;;;1.3;1.2;;;;;;;9.3;100.0;101240;;;;
2022/11/06 00:26:03;;;;;;;1.3;1.2;;;;;;;9.3;100.0;101240;;;;
2022/11/06 00:27:00;;;;;;;1.3;1.2;;;;;;;9.5;100.0;101240;;;;
2022/11/06 00:28:00;;;;;;;1.3;1.2;;;;;;;9.5;100.0;101240;;;;
2022/11/06 00:29:00;;;;;;;1.1;1.1;;;;;;;9.3;100.0;101240;;;;
2022/11/06 00:30:00;;;;;;;1.1;1.1;;;;;;;9.3;100.0;101240;;;;
2022/11/06 00:31:04;;;;;;;1.1;1.1;;;;;;;9.3;100.0;101240;;;;
2022/11/06 00:32:00;;;;;;;1.1;1.1;;;;;;;9.3;100.0;101240;;;;
2022/11/06 00:33:00;;;;;;;1.1;1.1;;;;;;;9.3;100.0;101240;;;;
2022/11/06 00:34:00;;;;;;;1.1;1.1;;;;;;;9.3;100.0;101240;;;;
2022/11/06 00:35:00;;;;;;;1.1;1.1;;;;;;;9.2;100.0;101230;;;;
2022/11/06 00:36:02;;;;;;;1.1;1.1;;;;;;;9.2;100.0;101230;;;;
2022/11/06 00:37:00;;;;;;;1.1;1.1;;;;;;;9.4;100.0;101230;;;;
2022/11/06 00:38:00;;;;;;;1.1;1.1;;;;;;;9.4;100.0;101230;;;;
2022/11/06 00:39:00;;;;;;;1.1;1.1;;;;;;;9.2;100.0;101230;;;;
2022/11/06 00:40:00;;;;;;;1.1;1.1;;;;;;;9.2;100.0;101230;;;;
2022/11/06 00:41:05;;;;;;;1.1;1.1;;;;;;;9.2;100.0;101220;;;;
2022/11/06 00:42:00;;;;;;;1.1;1.1;;;;;;;9.2;100.0;101220;;;;
2022/11/06 00:43:00;;;;;;;1.1;1.1;;;;;;;9.2;100.0;101230;;;;
2022/11/06 00:44:01;;;;;;;1.1;1.1;;;;;;;9.2;100.0;101230;;;;
2022/11/06 00:45:00;;;;;;;1.1;1.1;;;;;;;9.2;100.0;101230;;;;
2022/11/06 00:46:02;;;;;;;1.1;1.1;;;;;;;9.2;100.0;101230;;;;
2022/11/06 00:47:00;;;;;;;1.1;1.1;;;;;;;9.2;100.0;101220;;;;
2022/11/06 00:48:00;;;;;;;1.3;1.3;;;;;;;9.2;100.0;101220;;;;
2022/11/06 00:49:00;;;;;;;1.3;1.3;;;;;;;9.4;100.0;101210;;;;
2022/11/06 00:50:00;;;;;;;1.3;1.3;;;;;;;9.4;100.0;101210;;;;
2022/11/06 00:51:01;;;;;;;1.3;1.3;;;;;;;9.3;100.0;101210;;;;
2022/11/06 00:52:00;;;;;;;1.3;1.3;;;;;;;9.3;100.0;101210;;;;
2022/11/06 00:53:00;;;;;;;1.3;1.3;;;;;;;9.3;100.0;101210;;;;
2022/11/06 00:54:02;;;;;;;1.3;1.3;;;;;;;9.3;100.0;101210;;;;
2022/11/06 00:55:00;;;;;;;1.3;1.3;;;;;;;9.2;100.0;101220;;;;
2022/11/06 00:56:04;;;;;;;1.3;1.3;;;;;;;9.2;100.0;101220;;;;
2022/11/06 00:57:00;;;;;;;1.3;1.3;;;;;;;9.1;100.0;101220;;;;
2022/11/06 00:58:00;;;;;;;1.3;1.3;;;;;;;9.1;100.0;101220;;;;
2022/11/06 00:59:01;;;;;;;1.3;1.3;;;;;;;9.3;100.0;101220;;;;
2022/11/06 01:00:00;;;;;;;1.3;1.3;;;;;;;9.3;100.0;101220;;;;
2022/11/06 01:01:10;;;;;;;1.3;1.3;;;;;;;9.2;100.0;101220;;;;
2022/11/06 01:02:00;;;;;;;1.3;1.3;;;;;;;9.2;100.0;101220;;;;
2022/11/06 01:03:00;;;;;;;1.3;1.3;;;;;;;9.2;100.0;101230;;;;
2022/11/06 01:04:02;;;;;;;1.3;1.3;;;;;;;9.2;100.0;101230;;;;
2022/11/06 01:05:00;;;;;;;1.3;1.3;;;;;;;9.1;100.0;101220;;;;
2022/11/06 01:06:04;;;;;;;1.3;1.3;;;;;;;9.1;100.0;101220;;;;
2022/11/06 01:07:00;;;;;;;1.3;1.3;;;;;;;9.2;100.0;101210;;;;
2022/11/06 01:08:00;;;;;;;1.1;1.1;;;;;;;9.2;100.0;101210;;;;
2022/11/06 01:09:00;;;;;;;1.1;1.1;;;;;;;9.2;100.0;101210;;;;
2022/11/06 01:10:00;;;;;;;1.1;1.1;;;;;;;9.2;100.0;101210;;;;
2022/11/06 01:11:08;;;;;;;1.1;1.1;;;;;;;9.0;100.0;101210;;;;
2022/11/06 01:12:10;;;;;;;1.1;1.1;;;;;;;9.0;100.0;101210;;;;
2022/11/06 01:13:00;;;;;;;1.1;1.1;;;;;;;9.0;100.0;101220;;;;
2022/11/06 01:14:01;;;;;;;1.1;1.1;;;;;;;9.0;100.0;101220;;;;
2022/11/06 01:15:00;;;;;;;1.1;1.1;;;;;;;9.0;100.0;101220;;;;
2022/11/06 01:16:00;;;;;;;1.1;1.1;;;;;;;9.0;100.0;101220;;;;
2022/11/06 01:17:00;;;;;;;1.1;1.1;;;;;;;8.9;100.0;101220;;;;
2022/11/06 01:18:00;;;;;;;1.1;1.1;;;;;;;8.9;100.0;101220;;;;
2022/11/06 01:19:00;;;;;;;1.1;1.1;;;;;;;9.0;100.0;101220;;;;
2022/11/06 01:20:00;;;;;;;1.1;1.1;;;;;;;9.0;100.0;101220;;;;
2022/11/06 01:21:09;;;;;;;1.1;1.1;;;;;;;9.0;100.0;101220;;;;
2022/11/06 01:22:00;;;;;;;1.1;1.1;;;;;;;9.0;100.0;101220;;;;
2022/11/06 01:23:00;;;;;;;1.1;1.1;;;;;;;9.1;100.0;101220;;;;
2022/11/06 01:24:01;;;;;;;1.1;1.1;;;;;;;9.1;100.0;101220;;;;
2022/11/06 01:25:00;;;;;;;1.1;1.1;;;;;;;9.1;100.0;101210;;;;
2022/11/06 01:26:02;;;;;;;1.1;1.1;;;;;;;9.1;100.0;101210;;;;
2022/11/06 01:27:10;;;;;;;1.1;1.1;;;;;;;9.1;100.0;101210;;;;
2022/11/06 01:28:00;;;;;;;1.1;1.1;;;;;;;9.1;100.0;101210;;;;
2022/11/06 01:29:00;;;;;;;1.1;1.1;;;;;;;9.1;100.0;101200;;;;
2022/11/06 01:30:00;;;;;;;1.1;1.1;;;;;;;9.1;100.0;101200;;;;
2022/11/06 01:31:01;;;;;;;1.1;1.1;;;;;;;9.1;100.0;101190;;;;
2022/11/06 01:32:00;;;;;;;1.1;1.1;;;;;;;9.1;100.0;101190;;;;
2022/11/06 01:33:00;;;;;;;1.1;1.1;;;;;;;9.1;100.0;101190;;;;
2022/11/06 01:34:01;;;;;;;1.1;1.1;;;;;;;9.1;100.0;101190;;;;
2022/11/06 01:35:00;;;;;;;1.1;1.1;;;;;;;9.2;100.0;101190;;;;
2022/11/06 01:36:00;;;;;;;1.1;1.1;;;;;;;9.2;100.0;101190;;;;
2022/11/06 01:37:00;;;;;;;1.1;1.1;;;;;;;9.1;100.0;101190;;;;
2022/11/06 01:38:00;;;;;;;1.1;1.1;;;;;;;9.1;100.0;101190;;;;
2022/11/06 01:39:02;;;;;;;1.1;1.1;;;;;;;9.0;100.0;101190;;;;
2022/11/06 01:40:00;;;;;;;1.1;1.1;;;;;;;9.0;100.0;101190;;;;
2022/11/06 01:41:00;;;;;;;1.1;1.1;;;;;;;9.0;100.0;101190;;;;
2022/11/06 01:42:00;;;;;;;1.1;1.1;;;;;;;9.0;100.0;101190;;;;
2022/11/06 01:43:00;;;;;;;1.1;1.1;;;;;;;8.9;100.0;101200;;;;
2022/11/06 01:44:01;;;;;;;1.1;1.1;;;;;;;8.9;100.0;101200;;;;
2022/11/06 01:45:10;;;;;;;1.1;1.1;;;;;;;9.0;100.0;101190;;;;
2022/11/06 01:46:00;;;;;;;1.1;1.1;;;;;;;9.0;100.0;101190;;;;
2022/11/06 01:47:01;;;;;;;1.1;1.1;;;;;;;9.0;100.0;101190;;;;
2022/11/06 01:48:00;;;;;;;1.1;1.1;;;;;;;9.0;100.0;101190;;;;
2022/11/06 01:49:05;;;;;;;1.1;1.1;;;;;;;9.1;100.0;101180;;;;
2022/11/06 01:50:02;;;;;;;1.1;1.1;;;;;;;9.1;100.0;101180;;;;
2022/11/06 01:51:00;;;;;;;1.1;1.1;;;;;;;9.0;100.0;101180;;;;
2022/11/06 01:52:02;;;;;;;1.1;1.1;;;;;;;9.0;100.0;101180;;;;
2022/11/06 01:53:01;;;;;;;1.1;1.1;;;;;;;8.9;100.0;101180;;;;
2022/11/06 01:54:01;;;;;;;1.1;1.1;;;;;;;8.9;100.0;101180;;;;
2022/11/06 01:55:10;;;;;;;1.1;1.1;;;;;;;9.0;100.0;101180;;;;
2022/11/06 01:56:01;;;;;;;1.1;1.1;;;;;;;9.0;100.0;101180;;;;
2022/11/06 01:57:01;;;;;;;1.1;1.1;;;;;;;8.9;100.0;101170;;;;
2022/11/06 01:58:02;;;;;;;1.1;1.1;;;;;;;8.9;100.0;101170;;;;
2022/11/06 01:59:00;;;;;;;1.1;1.1;;;;;;;9.0;100.0;101170;;;;
2022/11/06 02:00:00;;;;;;;1.1;1.1;;;;;;;9.0;100.0;101170;;;;
2022/11/06 02:01:01;;;;;;;1.1;1.1;;;;;;;9.1;100.0;101170;;;;
2022/11/06 02:02:00;;;;;;;1.1;1.1;;;;;;;9.1;100.0;101170;;;;
2022/11/06 02:03:01;;;;;;;1.1;1.1;;;;;;;9.1;100.0;101170;;;;
2022/11/06 02:04:04;;;;;;;1.1;1.1;;;;;;;9.1;100.0;101170;;;;
2022/11/06 02:05:00;;;;;;;1.1;1.1;;;;;;;9.1;100.0;101170;;;;
2022/11/06 02:06:01;;;;;;;1.1;1.1;;;;;;;9.1;100.0;101170;;;;
2022/11/06 02:07:00;;;;;;;1.1;1.1;;;;;;;9.1;100.0;101170;;;;
2022/11/06 02:08:00;;;;;;;1.5;1.5;;;;;;;9.1;100.0;101170;;;;
2022/11/06 02:09:00;;;;;;;1.5;1.5;;;;;;;9.2;100.0;101180;;;;
2022/11/06 02:10:00;;;;;;;1.5;1.5;;;;;;;9.2;100.0;101180;;;;
2022/11/06 02:11:00;;;;;;;1.5;1.5;;;;;;;9.1;100.0;101170;;;;
2022/11/06 02:12:04;;;;;;;1.5;1.5;;;;;;;9.1;100.0;101170;;;;
2022/11/06 02:13:10;;;;;;;1.5;1.5;;;;;;;9.2;100.0;101170;;;;
2022/11/06 02:14:04;;;;;;;1.5;1.5;;;;;;;9.2;100.0;101170;;;;
2022/11/06 02:15:03;;;;;;;1.5;1.5;;;;;;;9.2;100.0;101160;;;;
2022/11/06 02:16:00;;;;;;;1.5;1.5;;;;;;;9.2;100.0;101160;;;;
2022/11/06 02:17:07;;;;;;;1.5;1.5;;;;;;;9.3;100.0;101160;;;;
2022/11/06 02:18:10;;;;;;;1.5;1.5;;;;;;;9.3;100.0;101160;;;;
2022/11/06 02:19:10;;;;;;;1.5;1.5;;;;;;;9.3;100.0;101160;;;;
2022/11/06 02:20:04;;;;;;;1.5;1.5;;;;;;;9.3;100.0;101160;;;;
2022/11/06 02:21:10;;;;;;;1.5;1.5;;;;;;;9.4;100.0;101150;;;;
2022/11/06 02:22:10;;;;;;;1.5;1.5;;;;;;;9.4;100.0;101150;;;;
2022/11/06 02:23:07;;;;;;;1.5;1.5;;;;;;;9.3;100.0;101160;;;;
2022/11/06 02:24:10;;;;;;;1.5;1.5;;;;;;;9.3;100.0;101160;;;;
2022/11/06 02:25:10;;;;;;;1.5;1.5;;;;;;;9.3;100.0;101150;;;;
2022/11/06 02:26:08;;;;;;;1.5;1.5;;;;;;;9.3;100.0;101150;;;;
2022/11/06 02:27:03;;;;;;;1.5;1.5;;;;;;;9.4;100.0;101150;;;;
2022/11/06 02:28:02;;;;;;;1.4;1.4;;;;;;;9.4;100.0;101150;;;;
2022/11/06 02:29:06;;;;;;;1.4;1.4;;;;;;;9.5;100.0;101150;;;;
2022/11/06 02:30:03;;;;;;;1.4;1.4;;;;;;;9.5;100.0;101150;;;;
2022/11/06 02:31:02;;;;;;;1.4;1.4;;;;;;;9.5;100.0;101150;;;;
2022/11/06 02:32:03;;;;;;;1.4;1.4;;;;;;;9.5;100.0;101150;;;;
2022/11/06 02:33:02;;;;;;;1.4;1.4;;;;;;;9.5;100.0;101140;;;;
2022/11/06 02:34:03;;;;;;;1.4;1.4;;;;;;;9.5;100.0;101140;;;;
2022/11/06 02:35:02;;;;;;;1.4;1.4;;;;;;;9.5;100.0;101140;;;;
2022/11/06 02:36:02;;;;;;;1.4;1.4;;;;;;;9.5;100.0;101140;;;;
2022/11/06 02:37:02;;;;;;;1.4;1.4;;;;;;;9.6;100.0;101130;;;;
2022/11/06 02:38:04;;;;;;;1.4;1.4;;;;;;;9.6;100.0;101130;;;;
2022/11/06 02:39:02;;;;;;;1.4;1.4;;;;;;;9.6;100.0;101140;;;;
2022/11/06 02:40:01;;;;;;;1.4;1.4;;;;;;;9.6;100.0;101140;;;;
2022/11/06 02:41:03;;;;;;;1.4;1.4;;;;;;;9.5;100.0;101130;;;;
2022/11/06 02:42:01;;;;;;;1.4;1.4;;;;;;;9.5;100.0;101130;;;;
2022/11/06 02:43:03;;;;;;;1.4;1.4;;;;;;;9.6;100.0;101130;;;;
2022/11/06 02:44:02;;;;;;;1.4;1.4;;;;;;;9.6;100.0;101130;;;;
2022/11/06 02:45:00;;;;;;;1.4;1.4;;;;;;;9.5;100.0;101130;;;;
2022/11/06 02:46:03;;;;;;;1.4;1.4;;;;;;;9.5;100.0;101130;;;;
2022/11/06 02:47:01;;;;;;;1.4;1.4;;;;;;;9.5;100.0;101140;;;;
2022/11/06 02:48:01;;;;;;;1.0;1.0;;;;;;;9.5;100.0;101140;;;;
2022/11/06 02:49:03;;;;;;;1.0;1.0;;;;;;;9.6;100.0;101130;;;;
2022/11/06 02:50:03;;;;;;;1.0;1.0;;;;;;;9.6;100.0;101130;;;;
2022/11/06 02:51:03;;;;;;;1.0;1.0;;;;;;;9.5;100.0;101120;;;;
2022/11/06 02:52:04;;;;;;;1.0;1.0;;;;;;;9.5;100.0;101120;;;;
2022/11/06 02:53:01;;;;;;;1.0;1.0;;;;;;;9.5;100.0;101120;;;;
2022/11/06 02:54:01;;;;;;;1.0;1.0;;;;;;;9.5;100.0;101120;;;;
2022/11/06 02:55:07;;;;;;;1.0;1.0;;;;;;;9.5;100.0;101120;;;;
2022/11/06 02:56:05;;;;;;;1.0;1.0;;;;;;;9.5;100.0;101120;;;;
2022/11/06 02:57:04;;;;;;;1.0;1.0;;;;;;;9.6;100.0;101120;;;;
2022/11/06 02:58:04;;;;;;;1.0;1.0;;;;;;;9.6;100.0;101120;;;;
2022/11/06 02:59:02;;;;;;;1.0;1.0;;;;;;;9.7;100.0;101120;;;;
2022/11/06 03:00:02;;;;;;;1.0;1.0;;;;;;;9.7;100.0;101120;;;;
2022/11/06 03:01:10;;;;;;;1.0;1.0;;;;;;;9.6;100.0;101120;;;;
2022/11/06 03:02:03;;;;;;;1.0;1.0;;;;;;;9.6;100.0;101120;;;;
2022/11/06 03:03:03;;;;;;;1.0;1.0;;;;;;;9.7;100.0;101120;;;;
2022/11/06 03:04:04;;;;;;;1.0;1.0;;;;;;;9.7;100.0;101120;;;;
2022/11/06 03:05:00;;;;;;;1.0;1.0;;;;;;;9.7;100.0;101120;;;;
2022/11/06 03:06:06;;;;;;;1.0;1.0;;;;;;;9.7;100.0;101120;;;;
2022/11/06 03:07:07;;;;;;;1.0;1.0;;;;;;;9.6;100.0;101130;;;;
2022/11/06 03:08:06;;;;;;;0.9;0.9;;;;;;;9.6;100.0;101130;;;;
2022/11/06 03:09:03;;;;;;;0.9;0.9;;;;;;;9.6;100.0;101130;;;;
2022/11/06 03:10:00;;;;;;;0.9;0.9;;;;;;;9.6;100.0;101130;;;;
2022/11/06 03:11:05;;;;;;;0.9;0.9;;;;;;;9.7;100.0;101130;;;;
2022/11/06 03:12:03;;;;;;;0.9;0.9;;;;;;;9.7;100.0;101130;;;;
2022/11/06 03:13:09;;;;;;;0.9;0.9;;;;;;;9.7;100.0;101120;;;;
2022/11/06 03:14:07;;;;;;;0.9;0.9;;;;;;;9.7;100.0;101120;;;;
2022/11/06 03:15:03;;;;;;;0.9;0.9;;;;;;;9.7;100.0;101130;;;;
2022/11/06 03:16:10;;;;;;;0.9;0.9;;;;;;;9.7;100.0;101130;;;;
2022/11/06 03:17:08;;;;;;;0.9;0.9;;;;;;;9.7;100.0;101120;;;;
2022/11/06 03:18:10;;;;;;;0.9;0.9;;;;;;;9.7;100.0;101120;;;;
2022/11/06 03:19:06;;;;;;;0.9;0.9;;;;;;;9.8;100.0;101120;;;;
2022/11/06 03:20:05;;;;;;;0.9;0.9;;;;;;;9.8;100.0;101120;;;;
2022/11/06 03:21:02;;;;;;;0.9;0.9;;;;;;;9.7;100.0;101130;;;;
2022/11/06 03:22:00;;;;;;;0.9;0.9;;;;;;;9.7;100.0;101130;;;;
2022/11/06 03:23:04;;;;;;;0.9;0.9;;;;;;;9.6;100.0;101140;;;;
2022/11/06 03:24:03;;;;;;;0.9;0.9;;;;;;;9.6;100.0;101140;;;;
2022/11/06 03:25:07;;;;;;;0.9;0.9;;;;;;;9.7;100.0;101140;;;;
2022/11/06 03:26:09;;;;;;;0.9;0.9;;;;;;;9.7;100.0;101140;;;;
2022/11/06 03:27:05;;;;;;;0.9;0.9;;;;;;;9.8;100.0;101140;;;;
2022/11/06 03:28:04;;;;;;;1.1;1.1;;;;;;;9.8;100.0;101140;;;;
2022/11/06 03:29:09;;;;;;;1.1;1.1;;;;;;;9.8;100.0;101120;;;;
2022/11/06 03:30:02;;;;;;;1.1;1.1;;;;;;;9.8;100.0;101120;;;;
2022/11/06 03:31:01;;;;;;;1.1;1.1;;;;;;;9.8;100.0;101130;;;;
2022/11/06 03:32:07;;;;;;;1.1;1.1;;;;;;;9.8;100.0;101130;;;;
2022/11/06 03:33:07;;;;;;;1.1;1.1;;;;;;;9.8;100.0;101110;;;;
2022/11/06 03:34:03;;;;;;;1.1;1.1;;;;;;;9.8;100.0;101110;;;;
2022/11/06 03:35:05;;;;;;;1.1;1.1;;;;;;;9.8;100.0;101110;;;;
2022/11/06 03:36:04;;;;;;;1.1;1.1;;;;;;;9.8;100.0;101110;;;;
2022/11/06 03:37:04;;;;;;;1.1;1.1;;;;;;;9.9;100.0;101110;;;;
2022/11/06 03:38:04;;;;;;;1.1;1.1;;;;;;;9.9;100.0;101110;;;;
2022/11/06 03:39:06;;;;;;;1.1;1.1;;;;;;;9.9;100.0;101100;;;;
2022/11/06 03:40:01;;;;;;;1.1;1.1;;;;;;;9.9;100.0;101100;;;;
2022/11/06 03:41:04;;;;;;;1.1;1.1;;;;;;;9.9;100.0;101100;;;;
2022/11/06 03:42:03;;;;;;;1.1;1.1;;;;;;;9.9;100.0;101100;;;;
2022/11/06 03:43:02;;;;;;;1.1;1.1;;;;;;;9.9;100.0;101100;;;;
2022/11/06 03:44:00;;;;;;;1.1;1.1;;;;;;;9.9;100.0;101100;;;;
2022/11/06 03:45:02;;;;;;;1.1;1.1;;;;;;;9.8;100.0;101090;;;;
2022/11/06 03:46:01;;;;;;;1.1;1.1;;;;;;;9.8;100.0;101090;;;;
2022/11/06 03:47:10;;;;;;;1.1;1.1;;;;;;;9.7;100.0;101090;;;;
2022/11/06 03:48:06;;;;;;;1.1;1.1;;;;;;;9.7;100.0;101090;;;;
2022/11/06 03:49:02;;;;;;;1.1;1.1;;;;;;;9.7;100.0;101090;;;;
2022/11/06 03:50:04;;;;;;;1.1;1.1;;;;;;;9.7;100.0;101090;;;;
2022/11/06 03:51:10;;;;;;;1.1;1.1;;;;;;;9.7;100.0;101100;;;;
2022/11/06 03:52:03;;;;;;;1.1;1.1;;;;;;;9.7;100.0;101100;;;;
2022/11/06 03:53:07;;;;;;;1.1;1.1;;;;;;;9.8;100.0;101100;;;;
2022/11/06 03:54:03;;;;;;;1.1;1.1;;;;;;;9.8;100.0;101100;;;;
2022/11/06 03:55:10;;;;;;;1.1;1.1;;;;;;;9.8;100.0;101090;;;;
2022/11/06 03:56:04;;;;;;;1.1;1.1;;;;;;;9.8;100.0;101090;;;;
2022/11/06 03:57:04;;;;;;;1.1;1.1;;;;;;;9.8;100.0;101090;;;;
2022/11/06 03:58:10;;;;;;;1.1;1.1;;;;;;;9.8;100.0;101090;;;;
2022/11/06 03:59:01;;;;;;;1.1;1.1;;;;;;;9.8;100.0;101080;;;;
2022/11/06 04:00:00;;;;;;;1.1;1.1;;;;;;;9.8;100.0;101080;;;;
2022/11/06 04:01:02;;;;;;;1.1;1.1;;;;;;;9.7;100.0;101070;;;;
2022/11/06 04:02:01;;;;;;;1.1;1.1;;;;;;;9.7;100.0;101070;;;;
2022/11/06 04:03:03;;;;;;;1.1;1.1;;;;;;;9.8;100.0;101070;;;;
2022/11/06 04:04:10;;;;;;;1.1;1.1;;;;;;;9.8;100.0;101070;;;;
2022/11/06 04:05:03;;;;;;;1.1;1.1;;;;;;;9.8;100.0;101070;;;;
2022/11/06 04:06:10;;;;;;;1.1;1.1;;;;;;;9.8;100.0;101070;;;;
2022/11/06 04:07:04;;;;;;;1.1;1.1;;;;;;;9.9;100.0;101070;;;;
2022/11/06 04:14:01;;;;;;;0.9;0.9;;;;;;;9.8;100.0;101060;;;;
2022/11/06 04:15:01;;;;;;;0.9;0.9;;;;;;;9.8;100.0;101060;;;;
2022/11/06 04:16:00;;;;;;;0.9;0.9;;;;;;;9.8;100.0;101060;;;;
2022/11/06 04:17:02;;;;;;;0.9;0.9;;;;;;;9.9;100.0;101060;;;;
2022/11/06 04:18:00;;;;;;;0.9;0.9;;;;;;;9.9;100.0;101060;;;;
2022/11/06 04:19:01;;;;;;;0.9;0.9;;;;;;;9.8;100.0;101060;;;;
2022/11/06 04:20:01;;;;;;;0.9;0.9;;;;;;;9.8;100.0;101060;;;;
2022/11/06 04:22:10;;;;;;;0.9;0.9;;;;;;;9.9;100.0;101060;;;;
2022/11/06 04:23:07;;;;;;;0.9;0.9;;;;;;;10.0;100.0;101060;;;;
2022/11/06 04:27:00;;;;;;;0.9;0.9;;;;;;;9.8;100.0;101040;;;;
2022/11/06 04:28:10;;;;;;;0.9;0.9;;;;;;;9.8;100.0;101040;;;;
2022/11/06 04:29:10;;;;;;;0.9;0.9;;;;;;;10.0;100.0;101050;;;;
2022/11/06 04:30:00;;;;;;;0.9;0.9;;;;;;;10.0;100.0;101050;;;;
2022/11/06 04:31:08;;;;;;;0.9;0.9;;;;;;;9.9;100.0;101040;;;;
2022/11/06 04:32:05;;;;;;;0.9;0.9;;;;;;;9.9;100.0;101040;;;;
2022/11/06 04:33:06;;;;;;;0.9;0.9;;;;;;;9.9;100.0;101040;;;;
2022/11/06 04:34:06;;;;;;;0.9;0.9;;;;;;;9.9;100.0;101040;;;;
2022/11/06 04:35:08;;;;;;;0.9;0.9;;;;;;;9.9;100.0;101030;;;;
2022/11/06 04:36:09;;;;;;;0.9;0.9;;;;;;;9.9;100.0;101030;;;;
2022/11/06 04:37:10;;;;;;;0.9;0.9;;;;;;;9.9;100.0;101030;;;;
2022/11/06 04:38:10;;;;;;;0.9;0.9;;;;;;;9.9;100.0;101030;;;;
2022/11/06 04:39:04;;;;;;;0.9;0.9;;;;;;;9.8;100.0;101030;;;;
2022/11/06 04:40:10;;;;;;;0.9;0.9;;;;;;;9.8;100.0;101030;;;;
2022/11/06 04:41:08;;;;;;;0.9;0.9;;;;;;;9.9;100.0;101030;;;;
2022/11/06 04:42:05;;;;;;;0.9;0.9;;;;;;;9.9;100.0;101030;;;;
2022/11/06 04:43:05;;;;;;;0.9;0.9;;;;;;;9.9;100.0;101030;;;;
2022/11/06 04:44:04;;;;;;;0.9;0.9;;;;;;;9.9;100.0;101030;;;;
2022/11/06 04:45:04;;;;;;;0.9;0.9;;;;;;;9.9;100.0;101030;;;;
2022/11/06 04:46:01;;;;;;;0.9;0.9;;;;;;;9.9;100.0;101030;;;;
2022/11/06 04:47:03;;;;;;;0.9;0.9;;;;;;;9.9;100.0;101030;;;;
2022/11/06 04:48:01;;;;;;;0.9;0.9;;;;;;;9.9;100.0;101030;;;;
2022/11/06 04:49:01;;;;;;;0.9;0.9;;;;;;;9.9;100.0;101030;;;;
2022/11/06 04:50:01;;;;;;;0.9;0.9;;;;;;;9.9;100.0;101030;;;;
2022/11/06 04:51:02;;;;;;;0.9;0.9;;;;;;;9.7;100.0;101020;;;;
2022/11/06 04:52:01;;;;;;;0.9;0.9;;;;;;;9.7;100.0;101020;;;;
2022/11/06 04:53:02;;;;;;;0.9;0.9;;;;;;;9.7;100.0;101030;;;;
2022/11/06 04:54:00;;;;;;;0.9;0.9;;;;;;;9.7;100.0;101030;;;;
2022/11/06 04:55:00;;;;;;;0.9;0.9;;;;;;;9.8;100.0;101030;;;;
2022/11/06 04:56:05;;;;;;;0.9;0.9;;;;;;;9.8;100.0;101030;;;;
2022/11/06 04:57:01;;;;;;;0.9;0.9;;;;;;;9.6;100.0;101030;;;;
2022/11/06 04:58:00;;;;;;;0.9;0.9;;;;;;;9.6;100.0;101030;;;;
2022/11/06 04:59:00;;;;;;;0.9;0.9;;;;;;;9.6;100.0;101020;;;;
2022/11/06 05:00:00;;;;;;;0.9;0.9;;;;;;;9.6;100.0;101020;;;;
2022/11/06 05:01:00;;;;;;;0.9;0.9;;;;;;;9.6;100.0;101020;;;;
2022/11/06 05:02:00;;;;;;;0.9;0.9;;;;;;;9.6;100.0;101020;;;;
2022/11/06 05:03:00;;;;;;;0.9;0.9;;;;;;;9.6;100.0;101010;;;;
2022/11/06 05:04:00;;;;;;;0.9;0.9;;;;;;;9.6;100.0;101010;;;;
2022/11/06 05:05:00;;;;;;;0.9;0.9;;;;;;;9.6;100.0;101010;;;;
2022/11/06 05:06:00;;;;;;;0.9;0.9;;;;;;;9.6;100.0;101010;;;;
2022/11/06 05:07:00;;;;;;;0.9;0.9;;;;;;;9.7;100.0;101020;;;;
2022/11/06 05:08:00;;;;;;;0.9;0.9;;;;;;;9.7;100.0;101020;;;;
2022/11/06 05:09:00;;;;;;;0.9;0.9;;;;;;;9.6;100.0;101020;;;;
2022/11/06 05:10:00;;;;;;;0.9;0.9;;;;;;;9.6;100.0;101020;;;;
2022/11/06 05:11:00;;;;;;;0.9;0.9;;;;;;;9.4;100.0;101020;;;;
2022/11/06 05:12:00;;;;;;;0.9;0.9;;;;;;;9.4;100.0;101020;;;;
2022/11/06 05:13:00;;;;;;;0.9;0.9;;;;;;;9.4;100.0;101010;;;;
2022/11/06 05:14:00;;;;;;;0.9;0.9;;;;;;;9.4;100.0;101010;;;;
2022/11/06 05:15:00;;;;;;;0.9;0.9;;;;;;;9.5;100.0;101010;;;;
2022/11/06 05:16:00;;;;;;;0.9;0.9;;;;;;;9.5;100.0;101010;;;;
2022/11/06 05:17:00;;;;;;;0.9;0.9;;;;;;;9.4;100.0;101010;;;;
2022/11/06 05:18:00;;;;;;;0.9;0.9;;;;;;;9.4;100.0;101010;;;;
2022/11/06 05:19:00;;;;;;;0.9;0.9;;;;;;;9.4;100.0;101010;;;;
2022/11/06 05:20:00;;;;;;;0.9;0.9;;;;;;;9.4;100.0;101010;;;;
2022/11/06 05:23:00;;;;;;;0.9;0.9;;;;;;;9.3;100.0;101010;;;;
2022/11/06 05:24:00;;;;;;;0.9;0.9;;;;;;;9.3;100.0;101010;;;;
2022/11/06 05:25:00;;;;;;;0.9;0.9;;;;;;;9.4;100.0;101010;;;;
2022/11/06 05:26:00;;;;;;;0.9;0.9;;;;;;;9.4;100.0;101010;;;;
2022/11/06 05:27:00;;;;;;;1.1;1.1;;;;;;;9.3;100.0;101000;;;;
2022/11/06 05:28:01;;;;;;;1.1;1.1;;;;;;;9.3;100.0;101000;;;;
2022/11/06 05:29:00;;;;;;;1.1;1.1;;;;;;;9.3;100.0;101000;;;;
2022/11/06 05:30:00;;;;;;;1.1;1.1;;;;;;;9.3;100.0;101000;;;;
2022/11/06 05:31:00;;;;;;;1.1;1.1;;;;;;;9.3;100.0;101000;;;;
2022/11/06 05:32:00;;;;;;;1.1;1.1;;;;;;;9.3;100.0;101000;;;;
2022/11/06 05:33:00;;;;;;;1.1;1.1;;;;;;;9.2;100.0;101000;;;;
2022/11/06 05:34:00;;;;;;;1.1;1.1;;;;;;;9.2;100.0;101000;;;;
2022/11/06 05:35:00;;;;;;;1.1;1.1;;;;;;;9.2;100.0;101010;;;;
2022/11/06 05:36:01;;;;;;;1.1;1.1;;;;;;;9.2;100.0;101010;;;;
2022/11/06 05:37:00;;;;;;;1.1;1.1;;;;;;;9.2;100.0;101010;;;;
2022/11/06 05:38:00;;;;;;;1.1;1.1;;;;;;;9.2;100.0;101010;;;;
2022/11/06 05:39:00;;;;;;;1.1;1.1;;;;;;;9.1;100.0;101010;;;;
2022/11/06 05:40:00;;;;;;;1.1;1.1;;;;;;;9.1;100.0;101010;;;;
2022/11/06 05:41:00;;;;;;;1.1;1.1;;;;;;;9.1;100.0;101000;;;;
2022/11/06 05:42:00;;;;;;;1.1;1.1;;;;;;;9.1;100.0;101000;;;;
2022/11/06 05:43:00;;;;;;;1.1;1.1;;;;;;;9.2;100.0;101010;;;;
2022/11/06 05:44:00;;;;;;;1.1;1.1;;;;;;;9.2;100.0;101010;;;;
2022/11/06 05:45:00;;;;;;;1.1;1.1;;;;;;;9.3;100.0;101010;;;;
2022/11/06 05:46:00;;;;;;;1.1;1.1;;;;;;;9.3;100.0;101010;;;;
2022/11/06 05:47:00;;;;;;;1.3;1.3;;;;;;;9.2;100.0;101000;;;;
2022/11/06 05:48:00;;;;;;;1.3;1.3;;;;;;;9.2;100.0;101000;;;;
2022/11/06 05:49:00;;;;;;;1.3;1.3;;;;;;;9.3;100.0;100990;;;;
2022/11/06 05:50:00;;;;;;;1.3;1.3;;;;;;;9.3;100.0;100990;;;;
2022/11/06 05:51:00;;;;;;;1.3;1.3;;;;;;;9.2;100.0;100990;;;;
2022/11/06 05:52:00;;;;;;;1.3;1.3;;;;;;;9.2;100.0;100990;;;;
2022/11/06 05:53:00;;;;;;;1.3;1.3;;;;;;;9.2;100.0;100990;;;;
2022/11/06 05:54:00;;;;;;;1.3;1.3;;;;;;;9.2;100.0;100990;;;;
2022/11/06 05:55:00;;;;;;;1.3;1.3;;;;;;;9.2;100.0;100980;;;;
2022/11/06 05:56:00;;;;;;;1.3;1.3;;;;;;;9.2;100.0;100980;;;;
2022/11/06 05:57:00;;;;;;;1.3;1.3;;;;;;;9.2;100.0;100980;;;;
2022/11/06 05:58:00;;;;;;;1.3;1.3;;;;;;;9.2;100.0;100980;;;;
2022/11/06 05:59:00;;;;;;;1.3;1.3;;;;;;;9.2;100.0;100980;;;;
2022/11/06 06:00:00;;;;;;;1.3;1.3;;;;;;;9.2;100.0;100980;;;;
2022/11/06 06:01:00;;;;;;;1.3;1.3;;;;;;;9.1;100.0;100990;;;;
2022/11/06 06:02:00;;;;;;;1.3;1.3;;;;;;;9.1;100.0;100990;;;;
2022/11/06 06:03:00;;;;;;;1.3;1.3;;;;;;;9.0;100.0;100980;;;;
2022/11/06 06:04:00;;;;;;;1.3;1.3;;;;;;;9.0;100.0;100980;;;;
2022/11/06 06:05:00;;;;;;;1.3;1.3;;;;;;;9.0;100.0;100980;;;;
2022/11/06 06:06:00;;;;;;;1.3;1.3;;;;;;;9.0;100.0;100980;;;;
2022/11/06 06:07:00;;;;;;;1.1;1.1;;;;;;;9.2;100.0;100980;;;;
2022/11/06 06:08:00;;;;;;;1.1;1.1;;;;;;;9.2;100.0;100980;;;;
2022/11/06 06:09:00;;;;;;;1.1;1.1;;;;;;;9.2;100.0;100980;;;;
2022/11/06 06:10:00;;;;;;;1.1;1.1;;;;;;;9.2;100.0;100980;;;;
2022/11/06 06:11:04;;;;;;;1.1;1.1;;;;;;;9.1;100.0;100970;;;;
2022/11/06 06:12:00;;;;;;;1.1;1.1;;;;;;;9.1;100.0;100970;;;;
2022/11/06 06:13:00;;;;;;;1.1;1.1;;;;;;;9.1;100.0;100970;;;;
2022/11/06 06:14:00;;;;;;;1.1;1.1;;;;;;;9.1;100.0;100970;;;;
2022/11/06 06:15:00;;;;;;;1.1;1.1;;;;;;;9.2;100.0;100970;;;;
2022/11/06 06:16:00;;;;;;;1.1;1.1;;;;;;;9.2;100.0;100970;;;;
2022/11/06 06:17:00;;;;;;;1.1;1.1;;;;;;;9.2;100.0;100970;;;;
2022/11/06 06:18:00;;;;;;;1.1;1.1;;;;;;;9.2;100.0;100970;;;;
2022/11/06 06:19:00;;;;;;;1.1;1.1;;;;;;;9.2;100.0;100970;;;;
2022/11/06 06:20:00;;;;;;;1.1;1.1;;;;;;;9.2;100.0;100970;;;;
2022/11/06 06:21:00;;;;;;;1.1;1.1;;;;;;;9.2;100.0;100970;;;;
2022/11/06 06:22:00;;;;;;;1.1;1.1;;;;;;;9.2;100.0;100970;;;;
2022/11/06 06:23:00;;;;;;;1.1;1.1;;;;;;;9.3;100.0;100970;;;;
2022/11/06 06:24:00;;;;;;;1.1;1.1;;;;;;;9.3;100.0;100970;;;;
2022/11/06 06:25:00;;;;;;;1.1;1.1;;;;;;;9.2;100.0;100980;;;;
2022/11/06 06:26:00;;;;;;;1.1;1.1;;;;;;;9.2;100.0;100980;;;;
2022/11/06 06:27:00;;;;;;;1.1;1.1;;;;;;;9.3;100.0;100970;;;;
2022/11/06 06:28:00;;;;;;;1.1;1.1;;;;;;;9.3;100.0;100970;;;;
2022/11/06 06:29:01;;;;;;;1.1;1.1;;;;;;;9.4;100.0;100960;;;;
2022/11/06 06:30:00;;;;;;;1.1;1.1;;;;;;;9.4;100.0;100960;;;;
2022/11/06 06:31:07;;;;;;;1.1;1.1;;;;;;;9.4;100.0;100960;;;;
2022/11/06 06:32:00;;;;;;;1.1;1.1;;;;;;;9.4;100.0;100960;;;;
2022/11/06 06:33:03;;;;;;;1.1;1.1;;;;;;;9.6;100.0;100960;;;;
2022/11/06 06:34:00;;;;;;;1.1;1.1;;;;;;;9.6;100.0;100960;;;;
2022/11/06 06:35:00;;;;;;;1.1;1.1;;;;;;;9.4;100.0;100960;;;;
2022/11/06 06:36:04;;;;;;;1.1;1.1;;;;;;;9.4;100.0;100960;;;;
2022/11/06 06:37:00;;;;;;;1.1;1.1;;;;;;;9.3;100.0;100960;;;;
2022/11/06 06:38:00;;;;;;;1.1;1.1;;;;;;;9.3;100.0;100960;;;;
2022/11/06 06:39:00;;;;;;;1.1;1.1;;;;;;;9.4;100.0;100960;;;;
2022/11/06 06:40:00;;;;;;;1.1;1.1;;;;;;;9.4;100.0;100960;;;;
2022/11/06 06:41:01;;;;;;;1.1;1.1;;;;;;;9.4;100.0;100960;;;;